Time;durP1;ratioP1;P1;durP2;ratioP2;P2;SDS_P1;SDS_P2;PMS_P1;PMS_P2;Temp;Humidity;BMP_temperature;BMP_pressure;BME280_temperature;BME280_humidity;BME280_pressure;Samples;Min_cycle;Max_cycle;Signal;HPM_P1;HPM_P2
2023/02/09 00:01:49;;;;;;;21.37;14.50;;;;;;;1.97;44.39;99556.06;8410977;28;20412;-67
2023/02/09 00:05:52;;;;;;;22.07;14.80;;;;;;;1.85;44.70;99555.03;8410801;28;20236;-65
2023/02/09 00:09:57;;;;;;;19.17;13.33;;;;;;;1.87;45.10;99555.06;8410583;28;20299;-65
2023/02/09 00:13:59;;;;;;;24.17;15.00;;;;;;;1.92;44.65;99541.53;8410314;28;20235;-65
2023/02/09 00:18:02;;;;;;;20.20;14.67;;;;;;;2.01;44.31;99542.50;8410709;28;20393;-67
2023/02/09 00:22:05;;;;;;;19.80;13.73;;;;;;;1.80;44.79;99541.31;8410229;28;20228;-66
2023/02/09 00:26:11;;;;;;;19.63;13.83;;;;;;;1.93;45.00;99540.69;8409594;28;20232;-65
2023/02/09 00:30:14;;;;;;;22.23;14.50;;;;;;;1.68;44.49;99496.00;8409631;28;20231;-66
2023/02/09 00:34:17;;;;;;;19.63;14.37;;;;;;;1.99;44.60;99533.97;8409751;28;20236;-65
2023/02/09 00:38:20;;;;;;;17.67;13.17;;;;;;;1.93;44.37;99527.06;8409302;28;20514;-66
2023/02/09 00:42:25;;;;;;;19.47;13.07;;;;;;;1.97;44.51;99527.97;8409110;28;20543;-66
2023/02/09 00:46:27;;;;;;;19.77;12.57;;;;;;;1.95;44.30;99527.94;8409484;28;20228;-65
2023/02/09 00:50:30;;;;;;;18.90;13.00;;;;;;;2.02;44.20;99528.88;8409443;28;20247;-66
2023/02/09 00:54:33;;;;;;;20.13;13.17;;;;;;;1.92;44.15;99533.88;8409207;28;20228;-66
2023/02/09 00:58:37;;;;;;;18.27;12.17;;;;;;;2.04;43.77;99530.63;8408974;28;20232;-66
2023/02/09 01:02:40;;;;;;;16.10;11.53;;;;;;;1.94;43.88;99521.97;8409150;28;20528;-66
2023/02/09 01:06:43;;;;;;;19.70;12.80;;;;;;;1.92;43.56;99530.44;8400661;28;20232;-66
2023/02/09 01:10:46;;;;;;;18.93;13.07;;;;;;;1.89;43.76;99526.13;8408932;28;20224;-66
2023/02/09 01:14:50;;;;;;;16.27;12.07;;;;;;;1.89;43.85;99522.72;8408747;28;20244;-66
2023/02/09 01:18:53;;;;;;;17.63;11.67;;;;;;;1.75;44.22;99528.50;8408820;28;20307;-66
2023/02/09 01:22:56;;;;;;;15.90;11.53;;;;;;;1.68;44.49;99534.31;8408347;28;20404;-66
2023/02/09 01:26:58;;;;;;;15.80;11.13;;;;;;;1.72;44.47;99537.78;8408346;28;20280;-66
2023/02/09 01:31:03;;;;;;;15.73;11.40;;;;;;;1.60;44.29;99525.69;8408523;28;20240;-66
2023/02/09 01:35:07;;;;;;;16.27;11.77;;;;;;;1.53;44.30;99495.78;8408742;28;20228;-65
2023/02/09 01:39:11;;;;;;;16.10;11.07;;;;;;;1.66;43.78;99507.91;8408721;28;20232;-66
2023/02/09 01:43:13;;;;;;;14.60;10.70;;;;;;;1.48;44.38;99497.38;8409074;28;20228;-65
2023/02/09 01:47:19;;;;;;;16.50;10.93;;;;;;;1.00;43.53;99383.44;8408813;28;20243;-65
2023/02/09 01:51:22;;;;;;;16.70;11.17;;;;;;;1.70;43.53;99499.44;8415218;28;20228;-66
2023/02/09 01:55:28;;;;;;;16.20;10.53;;;;;;;1.59;43.76;99495.84;8415048;28;20224;-66
2023/02/09 01:59:33;;;;;;;16.17;10.93;;;;;;;1.42;43.99;99494.72;8414788;28;20239;-66
2023/02/09 02:03:37;;;;;;;16.73;10.30;;;;;;;1.37;44.62;99492.06;8414619;28;20235;-66
2023/02/09 02:07:44;;;;;;;15.00;10.70;;;;;;;1.44;44.41;99493.06;8413956;28;20247;-66
2023/02/09 02:11:48;;;;;;;12.90;9.17;;;;;;;1.62;43.65;99489.94;8405965;28;20221;-66
2023/02/09 02:15:57;;;;;;;14.17;9.83;;;;;;;1.48;43.40;99476.94;8413812;28;20239;-66
2023/02/09 02:20:32;;;;;;;16.00;10.30;;;;;;;1.45;43.97;99485.44;8413748;28;20540;-66
2023/02/09 02:25:04;;;;;;;13.43;9.57;;;;;;;1.62;43.98;99485.72;8413165;28;20232;-66
2023/02/09 02:29:29;;;;;;;13.80;9.77;;;;;;;1.25;43.89;99451.91;8411631;28;20492;-66
2023/02/09 02:33:39;;;;;;;17.27;10.87;;;;;;;1.36;44.05;99473.34;8413044;28;20228;-66
2023/02/09 02:37:52;;;;;;;15.60;10.73;;;;;;;1.34;44.21;99471.63;8412807;28;20428;-66
2023/02/09 02:46:21;;;;;;;15.33;10.20;;;;;;;1.25;44.29;99457.00;8412851;28;20254;-66
2023/02/09 02:50:27;;;;;;;16.67;11.20;;;;;;;1.23;44.23;99450.16;8412931;28;20288;-66
2023/02/09 02:54:34;;;;;;;14.23;10.23;;;;;;;1.03;44.51;99442.16;8412384;28;20232;-66
2023/02/09 02:58:37;;;;;;;16.10;10.70;;;;;;;1.17;44.37;99456.03;8412597;28;20228;-66
2023/02/09 03:02:43;;;;;;;14.97;10.33;;;;;;;1.05;44.14;99443.91;8411384;28;20243;-66
2023/02/09 03:06:47;;;;;;;13.30;9.93;;;;;;;1.22;44.05;99477.38;8411513;28;20233;-66
2023/02/09 03:10:50;;;;;;;15.60;10.17;;;;;;;0.98;44.27;99460.78;8412152;28;20381;-66
2023/02/09 03:15:09;;;;;;;13.27;10.07;;;;;;;1.17;44.31;99471.34;8411697;28;20235;-66
2023/02/09 03:19:25;;;;;;;12.10;9.27;;;;;;;0.98;44.26;99460.78;8411623;28;20247;-66
2023/02/09 03:23:33;;;;;;;14.00;9.50;;;;;;;1.12;44.06;99485.69;8411625;28;20224;-66
2023/02/09 03:27:39;;;;;;;14.00;9.90;;;;;;;0.31;44.54;99383.91;8411393;28;20399;-66
2023/02/09 03:31:42;;;;;;;14.20;10.10;;;;;;;0.74;44.40;99466.31;8410987;28;20243;-66
2023/02/09 03:35:45;;;;;;;13.60;9.83;;;;;;;0.59;44.67;99435.41;8411296;28;20313;-66
2023/02/09 03:39:49;;;;;;;13.33;9.67;;;;;;;0.92;44.27;99462.38;8411046;28;20473;-65
2023/02/09 03:48:12;;;;;;;14.97;10.10;;;;;;;0.80;44.88;99468.13;8411074;28;20227;-66
2023/02/09 03:52:16;;;;;;;15.13;10.13;;;;;;;0.68;44.51;99448.31;8410837;28;20237;-66
2023/02/09 03:56:23;;;;;;;13.53;9.47;;;;;;;0.67;44.90;99461.06;8410828;28;20224;-66
2023/02/09 04:00:26;;;;;;;13.43;9.90;;;;;;;0.77;44.56;99460.41;8410802;28;20243;-66
2023/02/09 04:04:29;;;;;;;13.67;9.43;;;;;;;0.55;44.37;99457.47;8411037;28;20248;-66
2023/02/09 04:08:32;;;;;;;14.20;9.17;;;;;;;0.63;44.38;99457.59;8411175;28;20228;-66
2023/02/09 04:12:37;;;;;;;13.50;9.90;;;;;;;0.60;44.36;99461.78;8409990;28;20228;-66
2023/02/09 04:16:40;;;;;;;15.63;9.57;;;;;;;0.48;44.54;99462.41;8410298;28;20254;-66
2023/02/09 04:20:43;;;;;;;13.83;9.63;;;;;;;0.62;44.65;99466.06;8410053;28;20239;-66
2023/02/09 04:24:46;;;;;;;11.13;8.60;;;;;;;0.53;44.85;99469.31;8409803;28;20324;-66
2023/02/09 04:28:50;;;;;;;14.60;9.60;;;;;;;0.34;44.84;99451.91;8409556;28;20425;-66
2023/02/09 04:32:53;;;;;;;13.87;9.30;;;;;;;0.41;44.49;99458.00;8409393;28;20236;-67
2023/02/09 04:36:55;;;;;;;13.47;9.50;;;;;;;0.45;43.92;99475.94;8409601;28;20228;-66
2023/02/09 04:41:00;;;;;;;14.53;10.23;;;;;;;0.33;44.12;99462.94;8409240;28;20419;-66
2023/02/09 04:45:05;;;;;;;14.43;10.10;;;;;;;0.45;44.52;99475.06;8409307;28;20228;-66
2023/02/09 04:49:08;;;;;;;15.20;10.37;;;;;;;0.41;44.42;99476.69;8409336;28;20421;-66
2023/02/09 04:53:10;;;;;;;14.07;9.90;;;;;;;0.43;44.57;99480.13;8409330;28;20247;-66
2023/02/09 05:01:35;;;;;;;14.80;9.80;;;;;;;0.41;44.22;99471.59;8408833;28;20240;-66
2023/02/09 05:05:39;;;;;;;15.17;10.23;;;;;;;0.21;44.77;99465.22;8408506;28;20475;-66
2023/02/09 05:09:42;;;;;;;14.97;10.03;;;;;;;0.34;44.82;99462.09;8408231;28;20220;-66
2023/02/09 05:13:45;;;;;;;14.73;10.37;;;;;;;0.33;44.60;99470.59;8408772;28;20235;-67
2023/02/09 05:17:49;;;;;;;14.30;10.10;;;;;;;0.35;44.53;99466.38;8408901;28;20276;-66
2023/02/09 05:21:52;;;;;;;16.03;10.00;;;;;;;0.36;44.17;99474.06;8408602;28;20407;-66
2023/02/09 05:25:55;;;;;;;14.27;10.20;;;;;;;-0.17;44.71;99470.31;8414248;28;20240;-66
2023/02/09 05:29:58;;;;;;;13.70;9.17;;;;;;;0.14;44.70;99472.75;8415188;28;20232;-66
2023/02/09 05:34:02;;;;;;;21.53;14.40;;;;;;;0.13;44.42;99457.41;8415801;28;20235;-67
2023/02/09 05:38:04;;;;;;;13.37;9.43;;;;;;;0.10;44.39;99454.81;8415516;28;20403;-66
2023/02/09 05:42:17;;;;;;;14.50;9.30;;;;;;;0.16;44.44;99434.56;8414943;28;20235;-66
2023/02/09 05:46:20;;;;;;;15.80;10.23;;;;;;;0.13;44.54;99444.69;8415127;28;20231;-66
2023/02/09 05:50:24;;;;;;;18.27;11.37;;;;;;;-0.31;45.62;99426.75;8414978;28;20223;-66
2023/02/09 05:54:27;;;;;;;16.87;10.83;;;;;;;0.28;45.25;99457.72;8414640;28;20499;-66
2023/02/09 05:58:30;;;;;;;17.20;11.13;;;;;;;0.10;45.46;99437.84;8413955;28;20499;-67
2023/02/09 06:02:32;;;;;;;16.00;10.83;;;;;;;0.35;44.91;99459.59;8414209;28;20239;-66
2023/02/09 06:06:37;;;;;;;14.83;10.87;;;;;;;0.12;44.47;99392.03;8413877;28;20235;-66
2023/02/09 06:10:39;;;;;;;18.07;11.67;;;;;;;0.08;44.49;99431.84;8414172;28;20334;-66
2023/02/09 06:14:44;;;;;;;17.23;12.30;;;;;;;0.19;44.85;99460.97;8413873;28;20493;-66
2023/02/09 06:18:47;;;;;;;16.03;10.63;;;;;;;0.27;44.27;99453.47;8414430;28;20239;-67
2023/02/09 06:22:52;;;;;;;12.90;9.93;;;;;;;0.31;44.40;99447.63;8411848;28;20229;-66
2023/02/09 06:26:56;;;;;;;14.93;10.80;;;;;;;-0.05;45.17;99456.19;8412457;28;20250;-66
2023/02/09 06:30:59;;;;;;;14.33;10.10;;;;;;;0.08;45.00;99453.94;8413221;28;20217;-66
2023/02/09 06:35:01;;;;;;;16.00;10.73;;;;;;;0.05;44.97;99434.31;8412970;28;20398;-67
2023/02/09 06:39:08;;;;;;;16.10;11.23;;;;;;;0.17;45.30;99459.19;8413020;28;20411;-66
2023/02/09 06:43:10;;;;;;;14.83;11.00;;;;;;;0.03;44.71;99470.78;8412915;28;20242;-66
2023/02/09 06:47:13;;;;;;;13.03;9.43;;;;;;;0.09;44.53;99481.97;8413294;28;20228;-66
2023/02/09 06:51:16;;;;;;;14.97;10.00;;;;;;;0.13;44.13;99482.88;8412910;28;20220;-66
2023/02/09 06:55:21;;;;;;;15.73;10.13;;;;;;;-0.03;44.06;99477.47;8412656;28;20231;-66
2023/02/09 06:59:24;;;;;;;16.20;10.57;;;;;;;0.18;44.50;99491.50;8412697;28;20227;-66
2023/02/09 07:03:29;;;;;;;13.63;9.97;;;;;;;0.31;44.69;99490.94;8412467;28;20228;-66
2023/02/09 07:07:32;;;;;;;12.70;9.43;;;;;;;0.37;44.64;99500.41;8412626;28;20239;-66
2023/02/09 07:11:36;;;;;;;15.93;10.00;;;;;;;0.16;44.60;99506.75;8412568;28;20228;-67
2023/02/09 07:15:39;;;;;;;14.47;10.07;;;;;;;0.44;44.31;99509.91;8412842;28;20338;-66
2023/02/09 07:19:42;;;;;;;15.47;10.03;;;;;;;0.34;44.33;99506.31;8412204;28;20393;-66
2023/02/09 07:23:45;;;;;;;13.50;9.47;;;;;;;-0.33;45.22;99475.06;8412319;28;20224;-66
2023/02/09 07:27:52;;;;;;;13.30;9.20;;;;;;;0.49;44.14;99498.09;8412163;28;20251;-67
2023/02/09 07:31:55;;;;;;;14.80;9.37;;;;;;;0.54;43.79;99482.91;8412263;28;20331;-67
2023/02/09 07:35:59;;;;;;;14.63;9.90;;;;;;;0.51;44.28;99524.47;8412220;28;20251;-67
2023/02/09 07:40:02;;;;;;;13.63;9.23;;;;;;;0.49;44.43;99512.53;8411638;28;20244;-67
2023/02/09 07:44:06;;;;;;;12.33;9.10;;;;;;;0.58;44.24;99520.38;8412360;28;20233;-67
2023/02/09 07:48:10;;;;;;;13.63;8.97;;;;;;;0.69;43.42;99511.25;8411468;28;20530;-67
2023/02/09 07:52:13;;;;;;;14.03;9.40;;;;;;;0.73;43.36;99512.19;8411724;28;20531;-67
2023/02/09 07:56:16;;;;;;;14.40;9.47;;;;;;;0.74;43.74;99524.97;8411188;28;20300;-65
2023/02/09 08:00:21;;;;;;;15.47;10.70;;;;;;;0.82;43.94;99530.22;8411127;28;20220;-68
2023/02/09 08:04:24;;;;;;;13.90;8.97;;;;;;;1.97;41.92;99517.75;8411054;28;20239;-67
2023/02/09 08:08:26;;;;;;;12.17;8.77;;;;;;;1.47;41.44;99516.94;8410710;28;20294;-67
2023/02/09 08:16:49;;;;;;;14.23;9.43;;;;;;;3.32;38.95;99522.81;8409894;28;20304;-66
2023/02/09 08:20:53;;;;;;;12.50;9.27;;;;;;;3.55;38.78;99522.19;8410214;28;20231;-67
2023/02/09 08:24:56;;;;;;;12.10;9.17;;;;;;;3.43;37.94;99524.63;8409565;28;20232;-67
2023/02/09 08:28:59;;;;;;;11.50;9.10;;;;;;;4.34;36.72;99531.31;8410612;28;20474;-66
2023/02/09 08:33:03;;;;;;;12.87;9.00;;;;;;;4.86;35.60;99467.38;8410583;28;20244;-67
2023/02/09 08:37:06;;;;;;;12.83;9.43;;;;;;;5.07;35.66;99525.63;8410527;28;20315;-67
2023/02/09 08:41:11;;;;;;;11.73;8.70;;;;;;;5.78;34.43;99527.44;8409825;28;20224;-67
2023/02/09 08:45:14;;;;;;;10.60;8.50;;;;;;;5.24;35.03;99527.38;8410384;28;20319;-67
2023/02/09 08:49:18;;;;;;;10.67;8.70;;;;;;;6.73;32.57;99523.84;8409973;28;20228;-66
2023/02/09 08:53:21;;;;;;;14.80;9.50;;;;;;;6.63;33.21;99523.03;8410096;28;20228;-67
2023/02/09 08:57:24;;;;;;;11.43;8.70;;;;;;;6.37;32.56;99508.50;8409027;28;20228;-68
2023/02/09 09:01:44;;;;;;;11.10;8.03;;;;;;;6.52;32.44;99461.28;8409605;28;20299;-67
2023/02/09 09:05:48;;;;;;;10.53;8.20;;;;;;;6.84;31.72;99492.03;8409871;28;20236;-68
2023/02/09 09:09:51;;;;;;;10.07;7.60;;;;;;;6.41;33.07;99492.19;8410064;28;20565;-67
2023/02/09 09:13:54;;;;;;;10.17;8.60;;;;;;;7.23;31.68;99495.28;8409630;28;20236;-67
2023/02/09 09:17:57;;;;;;;10.00;7.93;;;;;;;6.14;33.23;99489.72;8409964;28;20228;-67
2023/02/09 09:22:02;;;;;;;11.67;8.10;;;;;;;5.54;32.69;99494.84;8410270;28;20419;-67
2023/02/09 09:26:05;;;;;;;8.07;7.17;;;;;;;7.03;31.28;99494.53;8409722;28;20641;-67
2023/02/09 09:30:09;;;;;;;9.10;7.23;;;;;;;8.31;30.26;99491.75;8409865;28;20224;-67
2023/02/09 09:34:12;;;;;;;8.20;7.03;;;;;;;7.45;30.50;99477.06;8409926;28;20220;-67
2023/02/09 09:38:16;;;;;;;7.30;6.60;;;;;;;8.71;29.67;99483.56;8409344;28;20231;-67
2023/02/09 09:42:23;;;;;;;7.67;6.33;;;;;;;8.51;29.14;99485.53;8409514;28;20227;-67
2023/02/09 09:46:33;;;;;;;8.63;7.00;;;;;;;8.11;29.15;99489.41;8409942;28;20228;-67
2023/02/09 09:50:38;;;;;;;8.63;6.70;;;;;;;6.72;30.97;99476.66;8409812;28;20283;-67
2023/02/09 09:54:43;;;;;;;11.47;6.93;;;;;;;6.55;31.33;99471.59;8409581;28;20232;-67
2023/02/09 09:58:47;;;;;;;10.30;6.40;;;;;;;8.98;29.46;99484.09;8408617;28;20224;-67
2023/02/09 10:02:49;;;;;;;7.03;5.97;;;;;;;8.59;29.65;99460.50;8409389;28;20432;-67
2023/02/09 10:06:58;;;;;;;7.53;6.73;;;;;;;8.54;28.71;99509.59;8409130;28;20239;-68
2023/02/09 10:11:04;;;;;;;8.13;6.90;;;;;;;9.55;27.96;99503.94;8413460;28;20240;-67
2023/02/09 10:15:28;;;;;;;7.73;6.93;;;;;;;10.23;26.87;99505.38;8415510;28;20228;-67
2023/02/09 10:19:31;;;;;;;8.03;6.90;;;;;;;10.25;27.02;99501.88;8415503;28;20231;-67
2023/02/09 10:23:39;;;;;;;9.30;7.07;;;;;;;10.48;26.99;99498.88;8415032;28;20224;-67
2023/02/09 10:27:46;;;;;;;13.90;10.47;;;;;;;9.65;27.96;99510.66;8414549;28;20228;-68
2023/02/09 10:31:54;;;;;;;9.47;6.87;;;;;;;9.69;28.07;99502.00;8414605;28;20317;-67
2023/02/09 10:35:59;;;;;;;8.43;7.50;;;;;;;9.33;28.50;99500.84;8414902;28;20250;-67
2023/02/09 10:40:10;;;;;;;9.93;7.63;;;;;;;9.32;27.59;99497.38;8414438;28;20235;-67
2023/02/09 10:44:20;;;;;;;7.97;7.17;;;;;;;10.13;27.54;99486.59;8413350;28;20252;-67
2023/02/09 10:48:24;;;;;;;10.10;7.83;;;;;;;10.22;26.88;99459.66;8414382;28;20511;-67
2023/02/09 10:52:32;;;;;;;9.63;7.83;;;;;;;9.43;28.48;99468.78;8413911;28;20252;-67
2023/02/09 10:56:43;;;;;;;10.20;7.97;;;;;;;10.53;26.99;99478.94;8413439;28;20274;-67
2023/02/09 11:00:51;;;;;;;8.90;8.00;;;;;;;10.67;27.10;99473.47;8413394;28;20235;-67
2023/02/09 11:04:54;;;;;;;9.43;8.43;;;;;;;10.33;27.41;99452.56;8413426;28;20237;-68
2023/02/09 11:09:00;;;;;;;11.00;9.33;;;;;;;10.26;27.64;99474.25;8412868;28;20237;-67
2023/02/09 11:13:14;;;;;;;11.30;9.13;;;;;;;8.75;29.27;99467.16;8413281;28;20229;-67
2023/02/09 11:17:21;;;;;;;12.07;9.07;;;;;;;9.06;29.14;99465.88;8413408;28;20428;-67
2023/02/09 11:21:32;;;;;;;10.67;9.57;;;;;;;8.94;29.60;99464.34;8411486;28;20224;-67
2023/02/09 11:25:38;;;;;;;13.50;11.40;;;;;;;9.62;29.08;99458.16;8412651;28;20472;-67
2023/02/09 11:29:45;;;;;;;12.10;10.30;;;;;;;8.86;30.13;99459.28;8412185;28;20239;-67
2023/02/09 11:33:57;;;;;;;11.40;9.03;;;;;;;9.67;28.97;99449.44;8412554;28;20236;-67
2023/02/09 11:38:02;;;;;;;12.00;10.13;;;;;;;8.72;30.34;99459.47;8412458;28;20228;-67
2023/02/09 11:46:29;;;;;;;12.07;10.83;;;;;;;8.74;30.41;99449.97;8412298;28;20419;-66
2023/02/09 11:50:39;;;;;;;11.97;10.07;;;;;;;8.64;31.06;99419.09;8411865;28;20550;-67
2023/02/09 11:54:46;;;;;;;13.00;11.20;;;;;;;8.91;30.85;99425.59;8411235;28;20228;-67
2023/02/09 11:58:54;;;;;;;13.23;10.20;;;;;;;8.85;30.79;99426.56;8411421;28;20232;-67
2023/02/09 12:02:59;;;;;;;12.27;10.37;;;;;;;8.83;30.90;99411.97;8411340;28;20315;-67
2023/02/09 12:07:10;;;;;;;13.50;10.70;;;;;;;9.03;30.50;99425.44;8411421;28;20565;-67
2023/02/09 12:11:40;;;;;;;12.57;10.97;;;;;;;8.39;31.31;99419.38;8411351;28;20228;-67
2023/02/09 12:15:45;;;;;;;12.17;10.63;;;;;;;8.30;32.11;99407.47;8397788;28;20220;-66
2023/02/09 12:19:56;;;;;;;12.17;10.63;;;;;;;7.86;32.25;99397.63;8411462;28;20546;-67
2023/02/09 12:24:01;;;;;;;12.30;10.27;;;;;;;7.50;33.72;99387.69;8410914;28;20240;-68
2023/02/09 12:28:17;;;;;;;13.63;10.87;;;;;;;7.61;33.82;99388.41;8410939;28;20292;-67
2023/02/09 12:32:30;;;;;;;11.97;10.07;;;;;;;6.67;34.61;99384.88;8410998;28;20224;-67
2023/02/09 12:36:33;;;;;;;12.57;10.67;;;;;;;7.57;34.02;99378.16;8410356;28;20235;-67
2023/02/09 12:40:38;;;;;;;14.27;10.63;;;;;;;7.23;33.97;99375.84;8411006;28;20542;-67
2023/02/09 12:44:54;;;;;;;13.53;11.07;;;;;;;7.33;34.89;99372.34;8411007;28;20228;-67
2023/02/09 12:49:09;;;;;;;14.63;11.43;;;;;;;6.20;36.14;99361.06;8410807;28;20235;-67
2023/02/09 12:53:45;;;;;;;14.60;11.33;;;;;;;7.54;34.46;99366.16;8410748;28;20235;-67
2023/02/09 12:57:50;;;;;;;15.33;12.00;;;;;;;5.80;36.61;99358.59;8409894;28;20224;-67
2023/02/09 13:02:24;;;;;;;15.73;10.83;;;;;;;6.82;35.94;99366.75;8410553;28;20243;-67
2023/02/09 13:06:31;;;;;;;13.97;11.97;;;;;;;6.42;35.42;99361.84;8410637;28;20232;-68
2023/02/09 13:10:38;;;;;;;13.80;11.37;;;;;;;7.60;34.24;99376.41;8410397;28;20238;-68
2023/02/09 13:14:43;;;;;;;12.37;11.00;;;;;;;8.05;34.02;99367.31;8410366;28;20228;-68
2023/02/09 13:18:52;;;;;;;15.37;11.50;;;;;;;7.49;34.32;99367.91;8409718;28;20224;-68
2023/02/09 13:23:13;;;;;;;14.83;12.40;;;;;;;7.80;33.95;99344.38;8409684;28;20243;-68
2023/02/09 13:27:18;;;;;;;13.53;11.43;;;;;;;8.62;32.83;99357.13;8409720;28;20243;-68
2023/02/09 13:31:33;;;;;;;16.17;12.50;;;;;;;8.41;32.34;99353.09;8410493;28;20521;-68
2023/02/09 13:35:41;;;;;;;14.27;12.43;;;;;;;8.09;32.61;99346.63;8410250;28;20232;-68
2023/02/09 13:39:44;;;;;;;14.93;11.90;;;;;;;8.50;32.39;99341.84;8409749;28;20411;-67
2023/02/09 13:43:47;;;;;;;13.60;11.87;;;;;;;8.86;32.29;99379.19;8410690;28;20235;-67
2023/02/09 13:47:51;;;;;;;14.20;11.90;;;;;;;9.35;31.54;99377.56;8416774;28;20403;-68
2023/02/09 13:52:11;;;;;;;15.67;13.40;;;;;;;9.09;32.32;99380.56;8416528;28;20247;-68
2023/02/09 13:56:15;;;;;;;14.77;12.87;;;;;;;9.27;31.90;99380.28;8416246;28;20232;-69
2023/02/09 14:00:24;;;;;;;17.20;12.50;;;;;;;9.47;31.62;99392.88;8416251;28;20247;-67
2023/02/09 14:04:30;;;;;;;17.30;14.40;;;;;;;9.59;30.87;99394.38;8415519;28;20527;-68
2023/02/09 14:08:33;;;;;;;17.30;14.27;;;;;;;9.96;30.68;99393.72;8415436;28;20247;-68
2023/02/09 14:12:55;;;;;;;15.90;14.23;;;;;;;10.01;30.66;99397.06;8415160;28;20231;-68
2023/02/09 14:17:09;;;;;;;16.00;13.93;;;;;;;9.50;30.39;99404.88;8414933;28;20230;-67
2023/02/09 14:21:31;;;;;;;17.90;13.70;;;;;;;9.91;30.67;99409.31;8415337;28;20245;-67
2023/02/09 14:25:33;;;;;;;17.37;15.07;;;;;;;9.62;31.23;99409.00;8414232;28;20228;-67
2023/02/09 14:29:37;;;;;;;18.07;15.53;;;;;;;9.84;30.83;99401.69;8414673;28;20226;-67
2023/02/09 14:33:40;;;;;;;18.93;14.10;;;;;;;9.89;30.77;99421.44;8414462;28;20237;-68
2023/02/09 14:37:44;;;;;;;17.90;15.20;;;;;;;9.63;31.46;99415.88;8413938;28;20232;-68
2023/02/09 14:41:59;;;;;;;17.17;15.13;;;;;;;9.59;31.12;99394.38;8414341;28;20432;-68
2023/02/09 14:46:02;;;;;;;16.57;14.77;;;;;;;9.52;31.24;99400.53;8413801;28;20232;-67
2023/02/09 14:50:07;;;;;;;17.17;14.90;;;;;;;9.56;31.77;99408.22;8414602;28;20231;-67
2023/02/09 14:54:22;;;;;;;17.17;14.90;;;;;;;9.24;32.30;99401.00;8414613;28;20506;-68
2023/02/09 14:58:26;;;;;;;16.50;13.47;;;;;;;9.30;31.75;99385.38;8413649;28;20244;-67
2023/02/09 15:02:29;;;;;;;16.10;14.10;;;;;;;9.17;31.73;99410.56;8413413;28;20236;-67
2023/02/09 15:06:34;;;;;;;17.43;14.50;;;;;;;9.26;31.60;99409.59;8413437;28;20225;-67
2023/02/09 15:10:42;;;;;;;16.03;14.17;;;;;;;9.23;31.98;99411.34;8413504;28;20224;-67
2023/02/09 15:14:45;;;;;;;17.17;14.40;;;;;;;8.90;32.41;99414.44;8413163;28;20240;-68
2023/02/09 15:18:48;;;;;;;17.50;14.80;;;;;;;8.72;32.67;99412.97;8413068;28;20228;-68
2023/02/09 15:22:51;;;;;;;19.97;15.57;;;;;;;8.36;33.16;99416.84;8412924;28;20300;-68
2023/02/09 15:26:56;;;;;;;18.83;14.57;;;;;;;8.27;33.75;99429.88;8412681;28;20571;-67
2023/02/09 15:31:00;;;;;;;19.73;15.43;;;;;;;8.14;33.94;99429.16;8413074;28;20531;-67
2023/02/09 15:35:03;;;;;;;19.17;15.63;;;;;;;7.80;34.50;99416.59;8412736;28;20265;-67
2023/02/09 15:39:12;;;;;;;18.50;15.63;;;;;;;7.76;34.55;99430.38;8412172;28;20259;-67
2023/02/09 15:47:55;;;;;;;17.80;15.33;;;;;;;7.66;34.79;99439.94;8412030;28;20238;-67
2023/02/09 15:51:58;;;;;;;18.23;15.20;;;;;;;7.49;34.96;99434.94;8411555;28;20220;-68
2023/02/09 15:56:00;;;;;;;16.73;14.93;;;;;;;7.33;35.45;99434.22;8411878;28;20239;-67
2023/02/09 16:00:14;;;;;;;19.60;15.50;;;;;;;7.12;36.15;99435.22;8411744;28;20405;-67
2023/02/09 16:04:17;;;;;;;19.93;15.03;;;;;;;7.09;36.72;99448.13;8411511;28;20415;-67
2023/02/09 16:08:22;;;;;;;18.40;14.47;;;;;;;6.89;37.25;99457.69;8410680;28;20235;-67
2023/02/09 16:12:24;;;;;;;18.20;14.87;;;;;;;6.74;37.41;99464.63;8411488;28;20334;-67
2023/02/09 16:16:32;;;;;;;19.57;14.20;;;;;;;6.11;38.17;99363.69;8411524;28;20231;-67
2023/02/09 16:20:35;;;;;;;18.10;14.23;;;;;;;6.52;38.54;99452.72;8411473;28;20224;-67
2023/02/09 16:24:40;;;;;;;18.13;15.47;;;;;;;6.34;39.17;99462.22;8407978;28;20244;-67
2023/02/09 16:28:43;;;;;;;21.77;17.30;;;;;;;6.28;39.41;99471.66;8410421;28;20423;-68
2023/02/09 16:32:47;;;;;;;22.13;16.87;;;;;;;6.26;39.76;99467.41;8411234;28;20515;-68
2023/02/09 16:36:50;;;;;;;25.90;18.30;;;;;;;6.14;39.82;99459.69;8410900;28;20224;-68
2023/02/09 16:40:54;;;;;;;29.93;21.63;;;;;;;6.10;40.06;99459.72;8411440;28;20239;-68
2023/02/09 16:44:57;;;;;;;25.50;19.20;;;;;;;5.98;40.94;99464.03;8410946;28;20236;-68
2023/02/09 16:49:01;;;;;;;24.93;19.03;;;;;;;5.73;40.45;99444.31;8409735;28;20227;-68
2023/02/09 16:53:14;;;;;;;24.67;19.83;;;;;;;5.73;40.57;99468.31;8410603;28;20246;-68
2023/02/09 16:57:19;;;;;;;25.57;19.17;;;;;;;5.63;41.76;99467.44;8410901;28;20231;-68
2023/02/09 17:01:22;;;;;;;31.33;22.77;;;;;;;5.64;41.12;99466.59;8410842;28;20228;-68
2023/02/09 17:05:29;;;;;;;29.47;21.43;;;;;;;5.57;41.63;99471.75;8410427;28;20248;-68
2023/02/09 17:09:32;;;;;;;38.87;27.27;;;;;;;5.55;41.75;99476.03;8410305;28;20290;-67
2023/02/09 17:13:36;;;;;;;31.63;24.00;;;;;;;5.56;41.92;99481.19;8410490;28;20553;-69
2023/02/09 17:17:39;;;;;;;64.77;41.43;;;;;;;5.46;41.50;99500.00;8410837;28;20333;-68
2023/02/09 17:21:43;;;;;;;181.57;104.80;;;;;;;5.51;41.77;99506.00;8415128;28;20688;-67
2023/02/09 17:25:46;;;;;;;70.13;41.83;;;;;;;5.51;41.47;99500.88;8416659;28;20259;-67
2023/02/09 17:29:50;;;;;;;85.67;49.87;;;;;;;5.34;41.71;99510.28;8416374;28;20235;-67
2023/02/09 17:33:54;;;;;;;27.90;20.23;;;;;;;5.32;42.10;99500.00;8415788;28;20228;-67
2023/02/09 17:37:58;;;;;;;24.83;17.20;;;;;;;5.29;41.96;99499.97;8415701;28;20231;-67
2023/02/09 17:42:02;;;;;;;28.17;19.50;;;;;;;4.99;41.91;99506.78;8416804;28;20270;-66
2023/02/09 17:46:06;;;;;;;40.63;28.73;;;;;;;4.21;42.37;99386.75;8415202;28;20235;-66
2023/02/09 17:50:09;;;;;;;34.77;25.27;;;;;;;4.98;42.46;99507.63;8415966;28;20277;-67
2023/02/09 17:54:15;;;;;;;35.73;23.63;;;;;;;4.94;42.47;99502.47;8415810;28;20224;-67
2023/02/09 17:58:19;;;;;;;27.77;21.17;;;;;;;4.49;43.18;99428.78;8415651;28;20310;-67
2023/02/09 18:02:21;;;;;;;27.20;19.30;;;;;;;4.78;43.44;99506.69;8415620;28;20227;-67
2023/02/09 18:06:32;;;;;;;21.77;17.27;;;;;;;4.73;43.02;99493.84;8414710;28;20301;-68
2023/02/09 18:10:37;;;;;;;38.70;28.83;;;;;;;4.25;43.89;99480.81;8414213;28;20224;-67
2023/02/09 18:14:41;;;;;;;119.03;74.30;;;;;;;4.65;43.11;99505.81;8414108;28;20228;-67
2023/02/09 18:18:45;;;;;;;75.87;50.50;;;;;;;4.65;43.82;99500.66;8414398;28;20561;-67
2023/02/09 18:22:48;;;;;;;52.37;37.17;;;;;;;4.65;43.62;99513.50;8414647;28;20429;-66
2023/02/09 18:26:53;;;;;;;44.00;31.43;;;;;;;4.75;43.86;99512.69;8412405;28;20236;-66
2023/02/09 18:30:56;;;;;;;36.23;27.57;;;;;;;4.57;44.02;99518.59;8414187;28;20228;-67
2023/02/09 18:35:01;;;;;;;36.87;27.63;;;;;;;4.52;44.38;99519.44;8414408;28;20228;-67
2023/02/09 18:39:04;;;;;;;34.17;25.13;;;;;;;4.44;44.18;99515.09;8414112;28;20389;-67
2023/02/09 18:43:13;;;;;;;48.27;34.43;;;;;;;4.55;44.18;99537.38;8414529;28;20228;-66
2023/02/09 18:47:16;;;;;;;50.50;33.60;;;;;;;4.40;44.10;99515.94;8414177;28;20240;-66
2023/02/09 18:51:20;;;;;;;40.73;27.90;;;;;;;4.52;44.10;99538.25;8414244;28;20394;-66
2023/02/09 18:55:26;;;;;;;31.80;22.47;;;;;;;4.39;44.59;99545.00;8414058;28;20220;-66
2023/02/09 18:59:33;;;;;;;29.37;23.60;;;;;;;4.23;44.72;99538.06;8414360;28;20235;-66
2023/02/09 19:03:35;;;;;;;30.53;21.80;;;;;;;4.18;44.83;99550.84;8414264;28;20237;-67
2023/02/09 19:07:48;;;;;;;26.03;20.20;;;;;;;4.25;44.59;99547.50;8413213;28;20562;-68
2023/02/09 19:11:53;;;;;;;28.10;22.50;;;;;;;4.28;44.25;99546.63;8412797;28;20492;-66
2023/02/09 19:15:57;;;;;;;31.60;23.90;;;;;;;4.07;44.83;99558.50;8412814;28;20236;-66
2023/02/09 19:20:00;;;;;;;28.37;22.57;;;;;;;4.14;44.80;99545.72;8412857;28;20240;-67
2023/02/09 19:24:03;;;;;;;26.00;18.40;;;;;;;8.33;70.89;99558.84;8412566;28;20542;-67
2023/02/09 19:28:06;;;;;;;29.70;23.67;;;;;;;8.87;47.06;99532.47;8413412;28;20432;-68
2023/02/09 19:32:12;;;;;;;38.63;30.30;;;;;;;7.18;40.54;99548.53;8414005;28;20235;-68